createdAt,value
2022-08-17T00:00:51.898Z,11.18
2022-08-17T00:02:26.314Z,12.77
2022-08-17T00:04:00.228Z,11.63
2022-08-17T00:05:36.802Z,10.52
2022-08-17T00:07:09.747Z,10.02
2022-08-17T00:08:45.238Z,10.43
2022-08-17T00:10:17.516Z,10.75
2022-08-17T00:12:40.550Z,9.57
2022-08-17T00:13:46.572Z,11.25
2022-08-17T00:15:23.173Z,11.07
2022-08-17T00:16:58.861Z,10.95
2022-08-17T00:19:02.015Z,10.35
2022-08-17T00:20:32.194Z,11.52
2022-08-17T00:22:32.676Z,12.02
2022-08-17T00:24:01.044Z,11.38
2022-08-17T00:25:33.734Z,12.65
2022-08-17T00:27:06.792Z,11.45
2022-08-17T00:28:40.954Z,10.40
2022-08-17T00:30:14.773Z,10.60
2022-08-17T00:31:47.977Z,10.63
2022-08-17T00:34:57.030Z,11.55
2022-08-17T00:38:04.125Z,11.60
2022-08-17T00:39:37.395Z,11.13
2022-08-17T00:41:13.228Z,12.52
2022-08-17T00:42:46.984Z,10.27
2022-08-17T00:44:20.047Z,15.93
2022-08-17T00:45:52.783Z,13.27
2022-08-17T00:47:25.933Z,12.43
2022-08-17T00:50:33.223Z,12.65
2022-08-17T00:52:15.462Z,11.93
2022-08-17T00:53:54.400Z,12.63
2022-08-17T00:55:28.214Z,13.82
2022-08-17T00:57:04.943Z,16.05
2022-08-17T00:58:39.191Z,17.10
2022-08-17T01:00:18.752Z,13.80
2022-08-17T01:01:53.062Z,14.20
2022-08-17T01:03:26.120Z,15.10
2022-08-17T01:05:00.571Z,14.43
2022-08-17T01:06:34.384Z,15.45
2022-08-17T01:08:10.096Z,15.63
2022-08-17T01:09:44.564Z,15.70
2022-08-17T01:11:17.168Z,15.05
2022-08-17T01:12:50.708Z,15.13
2022-08-17T01:14:26.125Z,13.45
2022-08-17T01:16:04.120Z,15.35
2022-08-17T01:17:36.485Z,13.18
2022-08-17T01:19:16.110Z,12.00
2022-08-17T01:20:52.888Z,13.77
2022-08-17T01:22:27.881Z,13.07
2022-08-17T01:24:01.280Z,14.10
2022-08-17T01:25:35.133Z,11.55
2022-08-17T01:27:10.405Z,11.82
2022-08-17T01:28:55.168Z,12.82
2022-08-17T01:30:58.955Z,12.85
2022-08-17T01:32:21.844Z,13.40
2022-08-17T01:33:54.902Z,11.75
2022-08-17T01:35:28.015Z,12.27
2022-08-17T01:37:00.560Z,11.40
2022-08-17T01:38:35.291Z,12.15
2022-08-17T01:40:15.249Z,12.05
2022-08-17T01:41:52.620Z,11.75
2022-08-17T01:43:28.620Z,11.57
2022-08-17T01:45:06.365Z,14.05
2022-08-17T01:46:39.345Z,12.80
2022-08-17T01:48:13.911Z,13.32
2022-08-17T01:49:46.020Z,12.20
2022-08-17T01:51:19.769Z,11.05
2022-08-17T01:52:55.173Z,11.48
2022-08-17T01:54:29.954Z,11.63
2022-08-17T01:56:07.831Z,13.18
2022-08-17T01:57:41.133Z,11.75
2022-08-17T01:59:13.936Z,11.73
2022-08-17T02:01:00.294Z,13.30
2022-08-17T02:02:34.483Z,12.73
2022-08-17T02:04:08.762Z,12.82
2022-08-17T02:05:41.985Z,12.75
2022-08-17T02:09:02.487Z,14.77
2022-08-17T02:10:37.920Z,13.50
2022-08-17T02:12:37.702Z,13.60
2022-08-17T02:14:12.655Z,13.18
2022-08-17T02:15:46.166Z,12.27
2022-08-17T02:17:19.271Z,12.98
2022-08-17T02:18:52.590Z,13.05
2022-08-17T02:20:41.778Z,12.10
2022-08-17T02:22:18.214Z,14.52
2022-08-17T02:23:51.640Z,14.35
2022-08-17T02:25:24.842Z,13.20
2022-08-17T02:28:31.493Z,13.40
2022-08-17T02:30:06.270Z,12.55
2022-08-17T02:32:00.160Z,13.82
2022-08-17T02:33:42.730Z,16.00
2022-08-17T02:35:16.658Z,12.75
2022-08-17T02:36:53.910Z,13.40
2022-08-17T02:38:26.061Z,12.77
2022-08-17T02:39:59.580Z,13.05
2022-08-17T02:41:32.984Z,14.20
2022-08-17T02:44:40.817Z,11.40
2022-08-17T02:46:13.151Z,12.05
2022-08-17T02:47:47.415Z,13.15
2022-08-17T02:49:20.381Z,17.20
2022-08-17T02:50:53.334Z,14.20
2022-08-17T02:52:43.493Z,12.45
2022-08-17T02:54:40.687Z,13.57
2022-08-17T02:56:10.348Z,11.50
2022-08-17T02:57:42.669Z,10.77
2022-08-17T02:59:17.048Z,12.63
2022-08-17T03:00:50.178Z,11.85
2022-08-17T03:02:23.186Z,10.20
2022-08-17T03:03:57.088Z,11.63
2022-08-17T03:05:32.966Z,11.57
2022-08-17T03:07:06.679Z,11.45
2022-08-17T03:08:40.595Z,12.48
2022-08-17T03:10:14.722Z,11.95
2022-08-17T03:11:47.749Z,12.60
2022-08-17T03:13:26.259Z,11.10
2022-08-17T03:16:36.339Z,12.07
2022-08-17T03:18:08.444Z,11.45
2022-08-17T03:19:52.530Z,11.05
2022-08-17T03:21:25.600Z,13.07
2022-08-17T03:23:01.912Z,11.90
2022-08-17T03:24:36.438Z,15.15
2022-08-17T03:27:48.353Z,11.75
2022-08-17T03:29:24.439Z,12.98
2022-08-17T03:30:58.948Z,14.60
2022-08-17T03:32:30.902Z,12.10
2022-08-17T03:34:03.895Z,12.05
2022-08-17T03:35:37.636Z,12.70
2022-08-17T03:37:10.645Z,11.48
2022-08-17T03:38:43.650Z,12.85
2022-08-17T03:40:17.310Z,11.98
2022-08-17T03:42:31.422Z,13.13
2022-08-17T03:44:06.107Z,11.57
2022-08-17T03:45:57.242Z,14.57
2022-08-17T03:47:48.910Z,13.10
2022-08-17T03:49:39.430Z,14.15
2022-08-17T03:51:37.765Z,13.02
2022-08-17T03:53:35.443Z,13.25
2022-08-17T03:55:36.216Z,15.05
2022-08-17T03:57:12.251Z,13.98
2022-08-17T03:58:44.334Z,13.50
2022-08-17T04:00:17.774Z,15.43
2022-08-17T04:01:52.254Z,12.95
2022-08-17T04:03:27.616Z,12.43
2022-08-17T04:05:03.802Z,13.68
2022-08-17T04:06:35.908Z,15.45
2022-08-17T04:08:09.025Z,13.93
2022-08-17T04:09:42.861Z,15.85
2022-08-17T04:11:14.817Z,16.27
2022-08-17T04:12:52.914Z,17.42
2022-08-17T04:14:25.966Z,17.88
2022-08-17T04:16:00.213Z,15.52
2022-08-17T04:17:33.256Z,12.80
2022-08-17T04:19:06.749Z,14.52
2022-08-17T04:20:39.713Z,14.52
2022-08-17T04:22:32.818Z,15.13
2022-08-17T04:24:06.615Z,14.82
2022-08-17T04:25:42.598Z,15.65
2022-08-17T04:27:15.619Z,13.57
2022-08-17T04:28:48.556Z,15.07
2022-08-17T04:30:21.816Z,14.63
2022-08-17T04:33:29.739Z,16.42
2022-08-17T04:35:04.082Z,13.63
2022-08-17T04:36:37.359Z,14.75
2022-08-17T04:40:04.556Z,16.55
2022-08-17T04:42:03.788Z,15.32
2022-08-17T04:43:37.916Z,16.33
2022-08-17T04:45:11.687Z,19.25
2022-08-17T04:46:44.693Z,17.45
2022-08-17T04:48:16.681Z,15.93
2022-08-17T04:49:49.857Z,16.20
2022-08-17T04:51:27.088Z,13.90
2022-08-17T04:53:00.412Z,15.70
2022-08-17T04:54:33.828Z,15.38
2022-08-17T04:56:06.370Z,17.65
2022-08-17T04:57:44.512Z,14.43
2022-08-17T04:59:21.186Z,16.48
2022-08-17T05:00:53.520Z,15.55
2022-08-17T05:02:26.626Z,17.08
2022-08-17T05:04:21.482Z,14.65
2022-08-17T05:05:55.963Z,17.52
2022-08-17T05:07:31.676Z,14.75
2022-08-17T05:09:05.609Z,14.93
2022-08-17T05:10:45.260Z,17.17
2022-08-17T05:12:18.614Z,16.45
2022-08-17T05:13:51.618Z,18.52
2022-08-17T05:15:24.615Z,14.95
2022-08-17T05:16:58.229Z,19.80
2022-08-17T05:18:33.380Z,17.92
2022-08-17T05:20:07.287Z,16.65
2022-08-17T05:21:40.209Z,17.38
2022-08-17T05:23:17.707Z,16.75
2022-08-17T05:24:55.547Z,17.30
2022-08-17T05:26:29.432Z,17.35
2022-08-17T05:28:02.133Z,15.40
2022-08-17T05:29:36.427Z,17.15
2022-08-17T05:31:09.552Z,15.38
2022-08-17T05:32:51.898Z,16.45
2022-08-17T05:34:25.173Z,16.90
2022-08-17T05:36:00.065Z,17.63
2022-08-17T05:37:33.308Z,19.23
2022-08-17T05:40:41.387Z,19.05
2022-08-17T05:42:19.272Z,18.50
2022-08-17T05:43:56.210Z,17.65
2022-08-17T05:45:39.871Z,15.43
2022-08-17T05:47:25.163Z,17.75
2022-08-17T05:49:01.950Z,18.08
2022-08-17T05:50:43.648Z,17.92
2022-08-17T05:52:26.858Z,15.90
2022-08-17T05:54:15.435Z,21.85
2022-08-17T05:55:59.595Z,17.52
2022-08-17T05:57:53.097Z,17.60
2022-08-17T05:59:42.231Z,19.90
2022-08-17T06:01:31.552Z,17.92
2022-08-17T06:03:46.071Z,16.45
2022-08-17T06:05:34.130Z,19.05
2022-08-17T06:07:17.219Z,18.02
2022-08-17T06:08:57.701Z,20.75
2022-08-17T06:10:39.905Z,18.67
2022-08-17T06:12:31.292Z,18.50
2022-08-17T06:14:21.081Z,18.33
2022-08-17T06:16:02.996Z,19.67
2022-08-17T06:17:36.732Z,18.55
2022-08-17T06:19:16.559Z,19.38
2022-08-17T06:20:54.544Z,22.75
2022-08-17T06:22:32.994Z,22.25
2022-08-17T06:24:18.887Z,18.25
2022-08-17T06:25:59.628Z,21.52
2022-08-17T06:27:36.775Z,22.73
2022-08-17T06:29:22.335Z,21.42
2022-08-17T06:31:01.382Z,22.33
2022-08-17T06:32:36.920Z,20.13
2022-08-17T06:34:12.748Z,20.30
2022-08-17T06:35:56.754Z,21.30
2022-08-17T06:37:54.220Z,20.35
2022-08-17T06:39:41.489Z,23.38
2022-08-17T06:41:26.795Z,20.42
2022-08-17T06:43:24.434Z,24.05
2022-08-17T06:45:04.506Z,18.15
2022-08-17T06:46:46.288Z,20.75
2022-08-17T06:48:34.063Z,17.95
2022-08-17T06:50:15.531Z,16.73
2022-08-17T06:51:54.548Z,18.88
2022-08-17T06:53:32.042Z,14.23
2022-08-17T06:55:18.013Z,13.95
2022-08-17T06:57:00.915Z,14.98
2022-08-17T06:58:35.791Z,14.73
2022-08-17T07:00:16.828Z,15.27
2022-08-17T07:01:52.721Z,14.40
2022-08-17T07:03:41.213Z,12.32
2022-08-17T07:05:17.630Z,13.80
2022-08-17T07:06:53.337Z,12.07
2022-08-17T07:08:38.316Z,11.07
2022-08-17T07:10:11.899Z,10.95
2022-08-17T07:11:52.606Z,11.30
2022-08-17T07:13:39.362Z,13.73
2022-08-17T07:15:14.778Z,11.05
2022-08-17T07:16:51.319Z,10.68
2022-08-17T07:18:27.312Z,11.93
2022-08-17T07:20:05.825Z,11.50
2022-08-17T07:21:47.023Z,10.27
2022-08-17T07:23:28.257Z,12.65
2022-08-17T07:25:04.605Z,10.60
2022-08-17T07:26:38.876Z,11.07
2022-08-17T07:28:12.956Z,11.60
2022-08-17T07:29:51.560Z,14.30
2022-08-17T07:31:27.103Z,19.00
2022-08-17T07:33:02.749Z,13.70
2022-08-17T07:35:10.787Z,10.60
2022-08-17T07:36:43.977Z,10.85
2022-08-17T07:38:25.068Z,12.93
2022-08-17T07:40:14.865Z,13.35
2022-08-17T07:41:59.102Z,13.15
2022-08-17T07:45:28.762Z,12.23
2022-08-17T07:47:19.406Z,11.43
2022-08-17T07:48:55.974Z,12.68
2022-08-17T07:50:30.617Z,9.38
2022-08-17T07:52:48.292Z,9.07
2022-08-17T07:54:13.960Z,10.30
2022-08-17T07:55:47.694Z,11.75
2022-08-17T07:57:39.567Z,10.13
2022-08-17T07:59:18.075Z,13.75
2022-08-17T08:01:11.203Z,10.73
2022-08-17T08:02:59.516Z,14.63
2022-08-17T08:04:59.377Z,11.40
2022-08-17T08:06:31.869Z,14.65
2022-08-17T08:08:19.040Z,13.98
2022-08-17T08:10:05.561Z,12.15
2022-08-17T08:11:43.804Z,11.52
2022-08-17T08:13:25.435Z,12.13
2022-08-17T08:15:01.178Z,10.38
2022-08-17T08:16:36.725Z,9.38
2022-08-17T08:18:53.831Z,11.40
2022-08-17T08:20:37.572Z,8.88
2022-08-17T08:22:12.275Z,9.07
2022-08-17T08:23:50.784Z,12.00
2022-08-17T08:25:38.814Z,11.98
2022-08-17T08:27:23.072Z,10.00
2022-08-17T08:29:04.365Z,8.90
2022-08-17T08:30:45.268Z,10.02
2022-08-17T08:32:27.054Z,11.35
2022-08-17T08:34:59.103Z,11.27
2022-08-17T08:36:59.326Z,8.85
2022-08-17T08:38:19.990Z,11.85
2022-08-17T08:40:02.014Z,23.75
2022-08-17T08:41:45.472Z,11.52
2022-08-17T08:43:28.019Z,11.75
2022-08-17T08:45:09.160Z,11.33
2022-08-17T08:47:03.179Z,10.27
2022-08-17T08:49:10.263Z,9.18
2022-08-17T08:50:53.551Z,9.45
2022-08-17T08:52:41.483Z,7.10
2022-08-17T08:54:27.328Z,7.55
2022-08-17T08:56:07.128Z,7.30
2022-08-17T08:57:48.135Z,9.43
2022-08-17T08:59:29.909Z,7.53
2022-08-17T09:01:08.893Z,9.00
2022-08-17T09:03:36.528Z,8.82
2022-08-17T09:05:28.625Z,8.55
2022-08-17T09:07:11.972Z,7.60
2022-08-17T09:10:30.406Z,9.10
2022-08-17T09:12:10.575Z,7.85
2022-08-17T09:13:54.555Z,9.35
2022-08-17T09:15:32.129Z,7.70
2022-08-17T09:17:12.837Z,7.90
2022-08-17T09:19:02.447Z,7.60
2022-08-17T09:20:50.044Z,7.25
2022-08-17T09:22:33.540Z,7.20
2022-08-17T09:24:12.773Z,7.53
2022-08-17T09:25:56.435Z,7.65
2022-08-17T09:27:34.086Z,8.05
2022-08-17T09:29:10.705Z,8.27
2022-08-17T09:30:47.392Z,8.35
2022-08-17T09:32:29.516Z,9.68
2022-08-17T09:34:06.365Z,7.85
2022-08-17T09:35:45.421Z,8.02
2022-08-17T09:37:24.245Z,6.70
2022-08-17T09:39:01.624Z,10.07
2022-08-17T09:40:40.643Z,8.23
2022-08-17T09:42:22.736Z,7.03
2022-08-17T09:44:01.317Z,6.57
2022-08-17T09:45:42.618Z,7.63
2022-08-17T09:47:30.518Z,7.68
2022-08-17T09:49:09.692Z,7.15
2022-08-17T09:51:03.335Z,9.63
2022-08-17T09:52:39.262Z,21.10
2022-08-17T09:54:38.525Z,11.10
2022-08-17T09:56:42.332Z,17.30
2022-08-17T09:58:29.161Z,11.30
2022-08-17T10:00:16.940Z,7.75
2022-08-17T10:01:56.046Z,9.27
2022-08-17T10:03:54.416Z,9.18
2022-08-17T10:05:37.564Z,11.32
2022-08-17T10:07:18.437Z,10.52
2022-08-17T10:08:57.334Z,9.80
2022-08-17T10:10:37.389Z,8.60
2022-08-17T10:12:29.797Z,6.65
2022-08-17T10:14:24.097Z,10.30
2022-08-17T10:16:14.686Z,7.70
2022-08-17T10:18:15.931Z,8.45
2022-08-17T10:19:58.865Z,8.85
2022-08-17T10:22:00.594Z,9.32
2022-08-17T10:24:13.449Z,8.23
2022-08-17T10:28:20.127Z,8.23
2022-08-17T10:29:58.267Z,8.18
2022-08-17T10:31:36.725Z,9.38
2022-08-17T10:33:17.641Z,7.28
2022-08-17T10:35:16.047Z,11.52
2022-08-17T10:36:59.742Z,8.02
2022-08-17T10:38:42.279Z,9.98
2022-08-17T10:40:26.620Z,8.55
2022-08-17T10:42:30.430Z,7.57
2022-08-17T10:44:38.076Z,7.45
2022-08-17T10:46:30.831Z,8.07
2022-08-17T10:48:27.350Z,8.98
2022-08-17T10:50:35.273Z,7.78
2022-08-17T10:52:49.969Z,9.50
2022-08-17T10:54:40.131Z,9.13
2022-08-17T10:56:50.344Z,8.15
2022-08-17T10:58:24.657Z,6.68
2022-08-17T11:00:01.416Z,7.03
2022-08-17T11:02:10.920Z,7.38
2022-08-17T11:03:54.724Z,10.02
2022-08-17T11:05:53.884Z,7.28
2022-08-17T11:07:43.876Z,8.00
2022-08-17T11:09:34.934Z,7.45
2022-08-17T11:11:37.181Z,8.77
2022-08-17T11:13:18.733Z,8.40
2022-08-17T11:15:28.377Z,6.43
2022-08-17T11:17:22.012Z,6.57
2022-08-17T11:19:18.529Z,7.68
2022-08-17T11:21:37.565Z,7.13
2022-08-17T11:23:59.138Z,7.53
2022-08-17T11:25:40.558Z,11.85
2022-08-17T11:27:26.031Z,7.78
2022-08-17T11:29:02.193Z,8.43
2022-08-17T11:30:49.438Z,6.63
2022-08-17T11:32:47.572Z,8.13
2022-08-17T11:34:23.362Z,7.18
2022-08-17T11:36:06.443Z,8.18
2022-08-17T11:39:55.369Z,7.82
2022-08-17T11:41:41.161Z,9.00
2022-08-17T11:43:45.648Z,8.65
2022-08-17T11:45:39.126Z,7.70
2022-08-17T11:47:37.000Z,6.97
2022-08-17T11:49:34.905Z,6.93
2022-08-17T11:51:32.206Z,10.40
2022-08-17T11:53:06.057Z,7.15
2022-08-17T11:54:45.846Z,8.65
2022-08-17T11:56:35.879Z,8.48
2022-08-17T11:58:41.958Z,7.32
2022-08-17T12:00:51.374Z,7.57
2022-08-17T12:02:39.012Z,8.20
2022-08-17T12:04:25.282Z,9.70
2022-08-17T12:06:17.795Z,7.45
2022-08-17T12:07:54.884Z,8.00
2022-08-17T12:09:31.744Z,7.63
2022-08-17T12:11:09.525Z,9.40
2022-08-17T12:12:46.228Z,6.68
2022-08-17T12:14:40.090Z,10.80
2022-08-17T12:16:25.929Z,10.60
2022-08-17T12:17:59.412Z,7.45
2022-08-17T12:19:33.945Z,9.43
2022-08-17T12:21:20.869Z,7.53
2022-08-17T12:23:04.423Z,6.82
2022-08-17T12:24:51.619Z,7.97
2022-08-17T12:26:30.413Z,6.80
2022-08-17T12:28:07.621Z,9.10
2022-08-17T12:29:45.316Z,8.10
2022-08-17T12:31:23.151Z,6.97
2022-08-17T12:32:57.078Z,6.80
2022-08-17T12:34:35.934Z,7.75
2022-08-17T12:36:15.149Z,7.18
2022-08-17T12:37:51.307Z,10.55
2022-08-17T12:39:26.646Z,7.15
2022-08-17T12:40:59.796Z,8.23
2022-08-17T12:42:37.298Z,8.07
2022-08-17T12:44:18.224Z,7.55
2022-08-17T12:45:59.524Z,7.55
2022-08-17T12:47:32.545Z,7.75
2022-08-17T12:49:24.170Z,6.65
2022-08-17T12:51:01.749Z,7.80
2022-08-17T12:52:38.536Z,7.57
2022-08-17T12:54:25.430Z,6.78
2022-08-17T12:56:00.297Z,8.05
2022-08-17T12:57:40.866Z,8.13
2022-08-17T12:59:18.269Z,6.55
2022-08-17T13:01:09.167Z,10.98
2022-08-17T13:02:46.409Z,7.63
2022-08-17T13:04:21.372Z,8.18
2022-08-17T13:06:00.622Z,9.05
2022-08-17T13:07:36.838Z,8.23
2022-08-17T13:09:12.455Z,12.38
2022-08-17T13:10:55.647Z,8.00
2022-08-17T13:14:11.082Z,7.55
2022-08-17T13:15:54.140Z,7.43
2022-08-17T13:17:29.575Z,7.55
2022-08-17T13:19:10.119Z,9.52
2022-08-17T13:20:53.330Z,7.45
2022-08-17T13:24:02.362Z,8.15
2022-08-17T13:25:35.534Z,7.82
2022-08-17T13:27:13.373Z,8.23
2022-08-17T13:28:49.722Z,7.95
2022-08-17T13:30:28.132Z,9.30
2022-08-17T13:32:19.894Z,7.28
2022-08-17T13:33:53.205Z,8.13
2022-08-17T13:35:50.196Z,8.77
2022-08-17T13:37:30.604Z,8.02
2022-08-17T13:39:09.463Z,8.63
2022-08-17T13:40:52.139Z,7.35
2022-08-17T13:42:52.086Z,8.40
2022-08-17T13:44:34.669Z,9.00
2022-08-17T13:46:13.608Z,7.65
2022-08-17T13:47:48.230Z,8.70
2022-08-17T13:49:22.391Z,8.57
2022-08-17T13:51:27.312Z,8.02
2022-08-17T13:53:00.583Z,9.27
2022-08-17T13:54:36.822Z,8.48
2022-08-17T13:56:33.447Z,8.63
2022-08-17T13:58:07.083Z,9.20
2022-08-17T13:59:55.088Z,8.32
2022-08-17T14:01:30.201Z,7.80
2022-08-17T14:03:06.481Z,8.07
2022-08-17T14:04:41.354Z,8.88
2022-08-17T14:06:52.189Z,7.00
2022-08-17T14:08:08.306Z,9.55
2022-08-17T14:09:48.028Z,9.63
2022-08-17T14:11:22.438Z,9.02
2022-08-17T14:12:55.809Z,6.15
2022-08-17T14:14:30.314Z,8.25
2022-08-17T14:16:03.444Z,9.75
2022-08-17T14:17:39.043Z,7.68
2022-08-17T14:19:24.752Z,7.85
2022-08-17T14:20:59.199Z,9.80
2022-08-17T14:22:34.898Z,7.85
2022-08-17T14:24:10.925Z,7.45
2022-08-17T14:25:45.765Z,8.32
2022-08-17T14:27:20.475Z,7.70
2022-08-17T14:28:54.630Z,9.02
2022-08-17T14:30:30.086Z,7.55
2022-08-17T14:32:16.474Z,8.98
2022-08-17T14:33:49.442Z,7.28
2022-08-17T14:35:25.364Z,7.30
2022-08-17T14:36:58.643Z,7.85
2022-08-17T14:38:32.373Z,7.43
2022-08-17T14:40:09.378Z,8.00
2022-08-17T14:41:43.245Z,7.78
2022-08-17T14:43:17.955Z,6.60
2022-08-17T14:44:51.204Z,8.73
2022-08-17T14:46:24.797Z,7.72
2022-08-17T14:47:57.993Z,7.80
2022-08-17T14:49:31.496Z,6.78
2022-08-17T14:51:06.591Z,6.60
2022-08-17T14:52:41.627Z,8.13
2022-08-17T14:54:28.828Z,8.75
2022-08-17T14:56:07.079Z,7.72
2022-08-17T14:57:42.220Z,8.50
2022-08-17T14:59:16.204Z,7.78
2022-08-17T15:00:50.794Z,10.23
2022-08-17T15:02:29.365Z,8.18
2022-08-17T15:04:03.742Z,10.43
2022-08-17T15:07:35.265Z,7.97
2022-08-17T15:09:08.365Z,10.70
2022-08-17T15:10:41.781Z,8.95
2022-08-17T15:12:17.888Z,10.80
2022-08-17T15:13:53.081Z,8.77
2022-08-17T15:15:27.047Z,8.00
2022-08-17T15:17:01.065Z,9.52
2022-08-17T15:18:34.132Z,8.07
2022-08-17T15:20:14.224Z,8.43
2022-08-17T15:21:48.072Z,10.68
2022-08-17T15:23:25.676Z,9.18
2022-08-17T15:24:58.731Z,11.27
2022-08-17T15:26:32.007Z,9.77
2022-08-17T15:28:06.373Z,12.02
2022-08-17T15:29:39.630Z,11.00
2022-08-17T15:31:12.728Z,9.98
2022-08-17T15:32:51.568Z,9.43
2022-08-17T15:34:28.059Z,8.93
2022-08-17T15:36:06.400Z,13.10
2022-08-17T15:37:40.400Z,11.60
2022-08-17T15:39:14.967Z,9.82
2022-08-17T15:40:53.792Z,10.02
2022-08-17T15:42:26.761Z,9.13
2022-08-17T15:43:59.773Z,8.32
2022-08-17T15:45:33.519Z,7.22
2022-08-17T15:47:06.896Z,8.30
2022-08-17T15:48:42.532Z,9.30
2022-08-17T15:50:15.817Z,7.68
2022-08-17T15:51:48.764Z,11.73
2022-08-17T15:53:21.939Z,7.75
2022-08-17T15:54:58.366Z,7.53
2022-08-17T15:56:32.433Z,8.38
2022-08-17T15:58:06.950Z,8.10
2022-08-17T15:59:40.384Z,8.20
2022-08-17T16:01:18.801Z,7.72
2022-08-17T16:03:46.107Z,8.95
2022-08-17T16:05:04.590Z,8.57
2022-08-17T16:06:43.615Z,12.18
2022-08-17T16:08:20.911Z,8.25
2022-08-17T16:09:54.606Z,10.13
2022-08-17T16:11:29.203Z,8.57
2022-08-17T16:13:02.391Z,8.57
2022-08-17T16:14:36.237Z,10.43
2022-08-17T16:16:10.685Z,8.68
2022-08-17T16:17:44.098Z,11.15
2022-08-17T16:19:17.122Z,8.00
2022-08-17T16:20:50.459Z,10.48
2022-08-17T16:22:32.635Z,9.90
2022-08-17T16:24:13.487Z,12.20
2022-08-17T16:25:52.815Z,8.52
2022-08-17T16:27:28.624Z,9.90
2022-08-17T16:29:05.378Z,10.15
2022-08-17T16:30:38.556Z,9.07
2022-08-17T16:32:14.599Z,9.25
2022-08-17T16:34:16.147Z,8.50
2022-08-17T16:35:42.030Z,10.55
2022-08-17T16:37:15.295Z,8.50
2022-08-17T16:38:48.362Z,8.18
2022-08-17T16:40:22.404Z,7.93
2022-08-17T16:41:56.076Z,8.57
2022-08-17T16:43:31.292Z,7.97
2022-08-17T16:45:07.343Z,8.48
2022-08-17T16:46:40.681Z,9.32
2022-08-17T16:48:18.856Z,11.88
2022-08-17T16:49:52.022Z,6.45
2022-08-17T16:51:25.679Z,8.40
2022-08-17T16:53:04.665Z,9.63
2022-08-17T16:54:40.599Z,9.48
2022-08-17T16:56:13.941Z,7.05
2022-08-17T16:57:50.716Z,10.60
2022-08-17T16:59:30.796Z,8.15
2022-08-17T17:01:05.584Z,7.88
2022-08-17T17:02:41.181Z,7.57
2022-08-17T17:04:16.747Z,8.63
2022-08-17T17:06:03.638Z,7.93
2022-08-17T17:07:56.554Z,9.80
2022-08-17T17:09:35.234Z,10.02
2022-08-17T17:11:14.264Z,8.40
2022-08-17T17:13:00.805Z,11.13
2022-08-17T17:14:44.428Z,9.75
2022-08-17T17:16:21.719Z,9.45
2022-08-17T17:18:06.815Z,7.03
2022-08-17T17:19:47.698Z,9.30
2022-08-17T17:21:26.065Z,7.20
2022-08-17T17:23:05.773Z,9.00
2022-08-17T17:24:50.214Z,8.25
2022-08-17T17:26:35.187Z,8.88
2022-08-17T17:28:17.999Z,8.90
2022-08-17T17:30:08.721Z,9.20
2022-08-17T17:31:49.119Z,8.48
2022-08-17T17:33:26.407Z,10.85
2022-08-17T17:35:04.677Z,9.00
2022-08-17T17:36:42.660Z,7.40
2022-08-17T17:38:19.838Z,10.10
2022-08-17T17:39:56.991Z,9.63
2022-08-17T17:41:35.431Z,8.93
2022-08-17T17:43:36.982Z,11.68
2022-08-17T17:45:17.187Z,9.30
2022-08-17T17:46:54.303Z,9.10
2022-08-17T17:48:27.975Z,8.32
2022-08-17T17:50:02.320Z,13.68
2022-08-17T17:52:09.938Z,8.90
2022-08-17T17:53:49.462Z,10.30
2022-08-17T17:55:52.478Z,9.20
2022-08-17T17:57:38.146Z,9.40
2022-08-17T17:59:30.348Z,11.20
2022-08-17T18:01:18.787Z,9.77
2022-08-17T18:03:11.950Z,11.07
2022-08-17T18:04:51.843Z,7.78
2022-08-17T18:06:36.197Z,9.52
2022-08-17T18:08:20.882Z,8.90
2022-08-17T18:10:29.416Z,14.63
2022-08-17T18:12:13.524Z,10.20
2022-08-17T18:14:02.966Z,9.50
2022-08-17T18:15:49.367Z,10.88
2022-08-17T18:17:23.943Z,11.15
2022-08-17T18:18:57.689Z,10.82
2022-08-17T18:20:32.468Z,10.13
2022-08-17T18:22:22.238Z,10.75
2022-08-17T18:23:57.440Z,10.15
2022-08-17T18:25:43.585Z,10.57
2022-08-17T18:27:26.731Z,9.30
2022-08-17T18:30:32.218Z,9.77
2022-08-17T18:32:25.587Z,11.43
2022-08-17T18:34:45.468Z,10.70
2022-08-17T18:36:26.531Z,12.32
2022-08-17T18:38:20.771Z,9.13
2022-08-17T18:39:52.985Z,9.30
2022-08-17T18:41:30.432Z,10.35
2022-08-17T18:43:11.327Z,9.65
2022-08-17T18:44:45.528Z,8.98
2022-08-17T18:46:28.887Z,8.95
2022-08-17T18:48:04.260Z,8.82
2022-08-17T18:49:37.565Z,9.25
2022-08-17T18:51:39.921Z,8.90
2022-08-17T18:55:10.203Z,11.00
2022-08-17T18:56:45.248Z,8.93
2022-08-17T18:58:25.282Z,11.52
2022-08-17T18:59:59.627Z,12.55
2022-08-17T19:01:53.333Z,10.30
2022-08-17T19:03:29.502Z,9.55
2022-08-17T19:05:08.386Z,9.13
2022-08-17T19:06:41.725Z,10.75
2022-08-17T19:08:25.452Z,11.35
2022-08-17T19:10:06.493Z,10.18
2022-08-17T19:11:40.726Z,10.40
2022-08-17T19:13:23.279Z,16.50
2022-08-17T19:14:59.390Z,11.68
2022-08-17T19:16:39.306Z,12.45
2022-08-17T19:18:17.547Z,10.20
2022-08-17T19:19:57.595Z,14.70
2022-08-17T19:21:37.863Z,12.43
2022-08-17T19:23:16.649Z,9.20
2022-08-17T19:25:01.141Z,9.73
2022-08-17T19:26:51.208Z,9.63
2022-08-17T19:28:33.672Z,10.23
2022-08-17T19:30:12.631Z,11.60
2022-08-17T19:31:46.216Z,12.45
2022-08-17T19:33:20.041Z,9.45
2022-08-17T19:34:54.517Z,9.98
2022-08-17T19:36:43.210Z,9.52
2022-08-17T19:38:28.105Z,11.23
2022-08-17T19:40:35.157Z,11.85
2022-08-17T19:42:14.822Z,9.95
2022-08-17T19:44:19.543Z,11.05
2022-08-17T19:46:02.288Z,9.52
2022-08-17T19:47:54.814Z,11.20
2022-08-17T19:49:40.991Z,11.25
2022-08-17T19:51:20.331Z,9.98
2022-08-17T19:53:00.802Z,11.23
2022-08-17T19:54:41.478Z,13.02
2022-08-17T19:56:22.504Z,13.43
2022-08-17T19:58:04.515Z,10.88
2022-08-17T19:59:50.385Z,10.32
2022-08-17T20:01:35.086Z,11.65
2022-08-17T20:03:16.589Z,10.23
2022-08-17T20:04:54.124Z,12.02
2022-08-17T20:06:33.345Z,11.90
2022-08-17T20:08:09.612Z,9.38
2022-08-17T20:09:47.986Z,12.80
2022-08-17T20:11:26.009Z,13.07
2022-08-17T20:13:04.189Z,11.80
2022-08-17T20:14:53.478Z,11.82
2022-08-17T20:16:29.077Z,9.82
2022-08-17T20:18:06.695Z,13.63
2022-08-17T20:19:47.801Z,11.65
2022-08-17T20:21:27.084Z,10.80
2022-08-17T20:23:11.314Z,11.75
2022-08-17T20:25:06.258Z,12.30
2022-08-17T20:26:58.655Z,11.82
2022-08-17T20:28:35.062Z,17.13
2022-08-17T20:30:11.563Z,11.82
2022-08-17T20:31:49.766Z,11.63
2022-08-17T20:33:29.605Z,12.48
2022-08-17T20:35:20.822Z,14.27
2022-08-17T20:37:02.567Z,14.05
2022-08-17T20:38:44.557Z,13.68
2022-08-17T20:40:35.125Z,12.35
2022-08-17T20:42:31.378Z,10.57
2022-08-17T20:44:07.086Z,11.13
2022-08-17T20:46:08.574Z,12.25
2022-08-17T20:48:07.346Z,13.50
2022-08-17T20:49:50.412Z,10.63
2022-08-17T20:51:27.478Z,12.85
2022-08-17T20:53:02.791Z,13.60
2022-08-17T20:54:50.247Z,14.15
2022-08-17T20:56:49.566Z,10.60
2022-08-17T20:58:53.435Z,11.40
2022-08-17T21:00:45.092Z,13.80
2022-08-17T21:02:21.212Z,11.00
2022-08-17T21:03:56.041Z,10.90
2022-08-17T21:05:34.326Z,13.85
2022-08-17T21:07:29.228Z,18.13
2022-08-17T21:09:24.930Z,14.57
2022-08-17T21:11:00.431Z,11.63
2022-08-17T21:12:41.724Z,13.15
2022-08-17T21:14:24.370Z,12.90
2022-08-17T21:16:02.931Z,11.32
2022-08-17T21:17:51.406Z,13.70
2022-08-17T21:20:00.212Z,11.63
2022-08-17T21:21:42.523Z,10.90
2022-08-17T21:23:34.574Z,12.30
2022-08-17T21:25:20.120Z,15.02
2022-08-17T21:27:01.431Z,14.13
2022-08-17T21:29:00.242Z,11.55
2022-08-17T21:30:49.541Z,10.40
2022-08-17T21:32:31.277Z,11.93
2022-08-17T21:34:29.325Z,13.55
2022-08-17T21:36:27.932Z,12.25
2022-08-17T21:38:04.919Z,12.38
2022-08-17T21:39:41.683Z,11.40
2022-08-17T21:41:22.187Z,11.02
2022-08-17T21:43:00.464Z,12.93
2022-08-17T21:44:36.749Z,10.35
2022-08-17T21:46:38.352Z,9.43
2022-08-17T21:48:14.727Z,12.15
2022-08-17T21:49:47.167Z,11.85
2022-08-17T21:51:23.854Z,11.52
2022-08-17T21:52:57.746Z,13.75
2022-08-17T21:54:35.621Z,13.43
2022-08-17T21:56:09.704Z,15.40
2022-08-17T21:57:53.019Z,12.10
2022-08-17T21:59:44.219Z,10.45
2022-08-17T22:01:24.800Z,11.02
2022-08-17T22:03:00.387Z,12.07
2022-08-17T22:04:34.890Z,14.20
2022-08-17T22:06:22.833Z,12.27
2022-08-17T22:08:02.382Z,11.93
2022-08-17T22:09:41.376Z,10.48
2022-08-17T22:11:13.980Z,12.00
2022-08-17T22:13:16.997Z,9.57
2022-08-17T22:15:01.558Z,10.80
2022-08-17T22:16:33.752Z,10.70
2022-08-17T22:18:19.743Z,11.43
2022-08-17T22:19:54.928Z,12.15
2022-08-17T22:21:28.534Z,12.15
2022-08-17T22:23:31.957Z,11.80
2022-08-17T22:25:08.979Z,12.27
2022-08-17T22:27:14.981Z,12.57
2022-08-17T22:28:49.943Z,12.73
2022-08-17T22:30:35.259Z,13.07
2022-08-17T22:32:07.358Z,10.50
2022-08-17T22:33:45.000Z,10.18